createdAt,value
2023-09-10T00:01:34.520Z,7.80
2023-09-10T00:04:03.424Z,7.82
2023-09-10T00:06:34.887Z,7.90
2023-09-10T00:09:04.508Z,7.63
2023-09-10T00:11:31.129Z,7.30
2023-09-10T00:13:57.819Z,7.45
2023-09-10T00:16:26.739Z,7.65
2023-09-10T00:18:55.776Z,7.47
2023-09-10T00:21:22.340Z,8.25
2023-09-10T00:23:53.633Z,7.23
2023-09-10T00:26:27.248Z,7.65
2023-09-10T00:28:57.018Z,8.00
2023-09-10T00:31:23.714Z,7.38
2023-09-10T00:33:52.665Z,7.65
2023-09-10T00:36:19.241Z,7.60
2023-09-10T00:38:45.911Z,8.13
2023-09-10T00:41:14.898Z,8.00
2023-09-10T00:43:41.502Z,7.00
2023-09-10T00:46:08.406Z,7.05
2023-09-10T00:48:38.307Z,7.87
2023-09-10T00:51:05.266Z,7.65
2023-09-10T00:53:32.464Z,7.40
2023-09-10T00:55:59.263Z,8.25
2023-09-10T00:58:31.250Z,8.20
2023-09-10T01:00:59.625Z,7.47
2023-09-10T01:03:33.748Z,8.30
2023-09-10T01:06:00.637Z,7.82
2023-09-10T01:08:27.477Z,7.68
2023-09-10T01:11:07.162Z,7.35
2023-09-10T01:14:01.550Z,7.57
2023-09-10T01:16:40.051Z,7.63
2023-09-10T01:19:27.361Z,7.47
2023-09-10T01:22:06.773Z,7.65
2023-09-10T01:24:52.515Z,6.72
2023-09-10T01:27:19.753Z,7.30
2023-09-10T01:29:48.615Z,6.68
2023-09-10T01:32:32.434Z,7.07
2023-09-10T01:35:20.011Z,7.13
2023-09-10T01:37:57.094Z,7.13
2023-09-10T01:40:31.761Z,8.63
2023-09-10T01:43:00.643Z,6.65
2023-09-10T01:45:28.054Z,7.30
2023-09-10T01:47:57.404Z,6.30
2023-09-10T01:50:24.392Z,6.85
2023-09-10T01:52:51.110Z,7.57
2023-09-10T01:55:17.834Z,6.93
2023-09-10T01:57:49.020Z,7.97
2023-09-10T02:00:16.019Z,8.68
2023-09-10T02:02:42.811Z,8.52
2023-09-10T02:05:09.610Z,8.67
2023-09-10T02:07:38.357Z,8.88
2023-09-10T02:10:07.734Z,8.75
2023-09-10T02:12:39.899Z,8.68
2023-09-10T02:15:08.410Z,9.75
2023-09-10T02:17:35.138Z,9.53
2023-09-10T02:20:10.945Z,8.65
2023-09-10T02:22:43.427Z,9.05
2023-09-10T02:25:10.337Z,8.27
2023-09-10T02:27:36.999Z,8.05
2023-09-10T02:30:09.592Z,7.93
2023-09-10T02:32:37.240Z,8.40
2023-09-10T02:35:04.624Z,8.50
2023-09-10T02:37:34.047Z,8.05
2023-09-10T02:40:03.068Z,9.20
2023-09-10T02:42:31.990Z,8.17
2023-09-10T02:45:00.860Z,8.10
2023-09-10T02:47:29.832Z,8.07
2023-09-10T02:49:56.814Z,8.07
2023-09-10T02:52:25.999Z,7.70
2023-09-10T02:54:55.078Z,7.03
2023-09-10T02:57:24.019Z,7.20
2023-09-10T02:59:50.610Z,7.80
2023-09-10T03:02:19.690Z,7.07
2023-09-10T03:04:46.436Z,7.32
2023-09-10T03:07:13.054Z,7.30
2023-09-10T03:09:42.607Z,7.30
2023-09-10T03:12:31.418Z,8.25
2023-09-10T03:14:58.104Z,7.68
2023-09-10T03:17:27.250Z,8.35
2023-09-10T03:19:56.451Z,8.17
2023-09-10T03:22:23.219Z,7.70
2023-09-10T03:24:52.232Z,7.80
2023-09-10T03:27:18.912Z,8.20
2023-09-10T03:29:48.424Z,7.50
2023-09-10T03:32:16.383Z,8.00
2023-09-10T03:34:45.010Z,8.13
2023-09-10T03:37:11.770Z,8.10
2023-09-10T03:39:43.288Z,8.25
2023-09-10T03:42:09.906Z,9.15
2023-09-10T03:44:36.566Z,8.57
2023-09-10T03:47:08.186Z,9.20
2023-09-10T03:49:34.859Z,8.82
2023-09-10T03:52:17.456Z,8.75
2023-09-10T03:54:46.488Z,8.38
2023-09-10T03:57:16.043Z,8.70
2023-09-10T03:59:42.813Z,8.45
2023-09-10T04:02:09.955Z,8.00
2023-09-10T04:04:38.842Z,8.90
2023-09-10T04:07:08.205Z,8.27
2023-09-10T04:09:37.215Z,7.90
2023-09-10T04:12:06.677Z,7.95
2023-09-10T04:14:35.762Z,8.32
2023-09-10T04:17:02.569Z,7.82
2023-09-10T04:19:31.390Z,7.88
2023-09-10T04:21:58.092Z,7.90
2023-09-10T04:24:27.029Z,7.93
2023-09-10T04:26:56.205Z,7.97
2023-09-10T04:29:26.066Z,7.72
2023-09-10T04:31:52.752Z,7.85
2023-09-10T04:34:19.455Z,8.83
2023-09-10T04:36:48.886Z,8.73
2023-09-10T04:39:20.632Z,8.25
2023-09-10T04:41:47.973Z,8.82
2023-09-10T04:44:16.978Z,8.90
2023-09-10T04:46:46.229Z,8.53
2023-09-10T04:49:13.112Z,8.23
2023-09-10T04:51:42.567Z,8.77
2023-09-10T04:54:11.478Z,8.13
2023-09-10T04:56:38.231Z,8.32
2023-09-10T04:59:04.875Z,8.03
2023-09-10T05:01:33.786Z,7.78
2023-09-10T05:04:00.490Z,8.38
2023-09-10T05:06:27.169Z,8.40
2023-09-10T05:08:53.787Z,8.05
2023-09-10T05:11:20.925Z,8.50
2023-09-10T05:13:50.130Z,8.95
2023-09-10T05:16:16.821Z,8.82
2023-09-10T05:18:48.946Z,8.60
2023-09-10T05:21:18.507Z,8.75
2023-09-10T05:23:45.078Z,8.30
2023-09-10T05:26:11.721Z,8.15
2023-09-10T05:28:38.623Z,8.32
2023-09-10T05:31:09.039Z,8.80
2023-09-10T05:33:40.238Z,8.48
2023-09-10T05:36:07.077Z,8.60
2023-09-10T05:38:33.685Z,8.18
2023-09-10T05:41:08.689Z,9.10
2023-09-10T05:43:37.762Z,7.68
2023-09-10T05:46:07.324Z,8.98
2023-09-10T05:48:34.661Z,8.03
2023-09-10T05:51:01.419Z,8.25
2023-09-10T05:53:28.858Z,8.30
2023-09-10T05:55:55.655Z,8.43
2023-09-10T05:58:25.751Z,8.40
2023-09-10T06:00:53.526Z,8.60
2023-09-10T06:03:20.334Z,8.50
2023-09-10T06:05:49.491Z,8.38
2023-09-10T06:08:18.410Z,8.63
2023-09-10T06:10:47.351Z,7.70
2023-09-10T06:13:16.591Z,7.50
2023-09-10T06:15:44.167Z,8.00
2023-09-10T06:18:14.280Z,7.10
2023-09-10T06:20:45.746Z,7.78
2023-09-10T06:23:12.466Z,8.13
2023-09-10T06:25:39.217Z,8.07
2023-09-10T06:28:09.059Z,8.68
2023-09-10T06:30:35.643Z,9.30
2023-09-10T06:33:06.887Z,9.35
2023-09-10T06:35:35.389Z,8.80
2023-09-10T06:38:02.213Z,8.60
2023-09-10T06:40:31.778Z,10.50
2023-09-10T06:42:58.357Z,9.90
2023-09-10T06:45:27.164Z,9.18
2023-09-10T06:47:54.001Z,9.40
2023-09-10T06:50:23.179Z,9.13
2023-09-10T06:52:49.853Z,9.52
2023-09-10T06:55:18.764Z,10.13
2023-09-10T06:57:48.388Z,9.25
2023-09-10T07:00:15.198Z,9.73
2023-09-10T07:02:44.037Z,9.60
2023-09-10T07:05:11.238Z,10.82
2023-09-10T07:07:38.024Z,9.85
2023-09-10T07:10:04.805Z,10.25
2023-09-10T07:12:31.475Z,9.65
2023-09-10T07:15:00.298Z,10.13
2023-09-10T07:17:26.969Z,10.05
2023-09-10T07:19:56.039Z,11.00
2023-09-10T07:22:23.023Z,11.02
2023-09-10T07:24:49.590Z,10.30
2023-09-10T07:27:20.915Z,10.77
2023-09-10T07:29:49.785Z,9.88
2023-09-10T07:32:18.649Z,10.35
2023-09-10T07:34:45.333Z,10.15
2023-09-10T07:37:12.450Z,10.48
2023-09-10T07:39:39.175Z,9.83
2023-09-10T07:42:05.834Z,10.38
2023-09-10T07:44:35.054Z,10.25
2023-09-10T07:47:03.909Z,9.75
2023-09-10T07:49:33.112Z,9.60
2023-09-10T07:51:59.691Z,10.80
2023-09-10T07:54:26.309Z,10.13
2023-09-10T07:56:52.891Z,10.65
2023-09-10T07:59:19.562Z,10.40
2023-09-10T08:01:48.818Z,10.25
2023-09-10T08:04:18.260Z,9.23
2023-09-10T08:06:45.218Z,9.52
2023-09-10T08:09:14.893Z,9.68
2023-09-10T08:11:43.944Z,9.00
2023-09-10T08:14:15.365Z,9.80
2023-09-10T08:16:42.059Z,9.90
2023-09-10T08:19:08.695Z,9.50
2023-09-10T08:21:35.328Z,9.60
2023-09-10T08:24:04.620Z,10.02
2023-09-10T08:26:33.671Z,10.82
2023-09-10T08:29:02.549Z,9.43
2023-09-10T08:31:31.476Z,10.20
2023-09-10T08:34:02.734Z,9.25
2023-09-10T08:36:31.917Z,9.52
2023-09-10T08:39:01.843Z,9.90
2023-09-10T08:41:57.049Z,9.67
2023-09-10T08:44:27.896Z,9.40
2023-09-10T08:47:01.735Z,10.25
2023-09-10T08:49:30.560Z,9.60
2023-09-10T08:52:00.074Z,10.45
2023-09-10T08:54:26.955Z,9.97
2023-09-10T08:56:55.603Z,10.77
2023-09-10T08:59:25.329Z,10.02
2023-09-10T09:01:52.507Z,10.20
2023-09-10T09:04:21.900Z,9.60
2023-09-10T09:06:56.468Z,10.00
2023-09-10T09:09:27.444Z,9.88
2023-09-10T09:11:57.545Z,10.27
2023-09-10T09:14:30.486Z,10.68
2023-09-10T09:16:59.577Z,10.80
2023-09-10T09:19:31.427Z,11.00
2023-09-10T09:22:02.659Z,10.50
2023-09-10T09:24:32.550Z,10.85
2023-09-10T09:27:00.916Z,9.93
2023-09-10T09:29:29.888Z,10.27
2023-09-10T09:31:56.544Z,9.97
2023-09-10T09:34:26.067Z,9.75
2023-09-10T09:36:55.457Z,10.35
2023-09-10T09:39:22.437Z,9.25
2023-09-10T09:41:54.302Z,11.10
2023-09-10T09:44:23.432Z,10.43
2023-09-10T09:46:53.256Z,9.85
2023-09-10T09:49:19.900Z,10.60
2023-09-10T09:51:46.541Z,10.10
2023-09-10T09:54:13.234Z,9.73
2023-09-10T09:56:43.926Z,9.67
2023-09-10T09:59:13.787Z,9.45
2023-09-10T10:01:40.817Z,10.63
2023-09-10T10:04:08.195Z,9.23
2023-09-10T10:06:48.671Z,9.77
2023-09-10T10:09:19.677Z,9.53
2023-09-10T10:11:49.284Z,9.30
2023-09-10T10:14:16.815Z,9.32
2023-09-10T10:16:51.050Z,9.05
2023-09-10T10:19:18.696Z,10.05
2023-09-10T10:21:48.585Z,9.00
2023-09-10T10:24:16.635Z,9.13
2023-09-10T10:26:47.391Z,8.57
2023-09-10T10:29:20.642Z,10.07
2023-09-10T10:31:53.456Z,9.13
2023-09-10T10:34:24.417Z,8.83
2023-09-10T10:37:23.506Z,9.07
2023-09-10T10:40:14.912Z,8.85
2023-09-10T10:42:52.074Z,8.73
2023-09-10T10:45:21.629Z,9.75
2023-09-10T10:47:52.954Z,8.37
2023-09-10T10:50:28.770Z,8.30
2023-09-10T10:53:12.487Z,8.32
2023-09-10T10:55:42.757Z,8.05
2023-09-10T10:58:09.516Z,8.82
2023-09-10T11:00:36.211Z,8.00
2023-09-10T11:03:17.278Z,8.60
2023-09-10T11:05:53.784Z,8.90
2023-09-10T11:08:39.912Z,8.73
2023-09-10T11:11:29.214Z,8.80
2023-09-10T11:14:04.095Z,8.67
2023-09-10T11:16:44.099Z,8.57
2023-09-10T11:19:46.584Z,9.00
2023-09-10T11:22:13.453Z,9.27
2023-09-10T11:24:41.680Z,8.45
2023-09-10T11:27:23.700Z,8.03
2023-09-10T11:30:11.340Z,8.43
2023-09-10T11:32:43.518Z,7.65
2023-09-10T11:35:23.327Z,8.10
2023-09-10T11:37:52.135Z,8.20
2023-09-10T11:40:20.381Z,7.80
2023-09-10T11:42:48.726Z,7.43
2023-09-10T11:45:16.460Z,7.53
2023-09-10T11:47:47.684Z,7.30
2023-09-10T11:50:20.333Z,6.80
2023-09-10T11:52:47.067Z,7.57
2023-09-10T11:55:13.770Z,7.00
2023-09-10T11:57:43.189Z,7.70
2023-09-10T12:00:17.813Z,7.40
2023-09-10T12:02:46.620Z,6.97
2023-09-10T12:05:13.640Z,6.40
2023-09-10T12:07:45.194Z,5.65
2023-09-10T12:10:13.765Z,6.22
2023-09-10T12:12:44.617Z,6.22
2023-09-10T12:15:14.240Z,6.57
2023-09-10T12:17:41.558Z,6.40
2023-09-10T12:20:09.557Z,6.60
2023-09-10T12:22:36.393Z,6.95
2023-09-10T12:25:06.318Z,7.40
2023-09-10T12:27:38.929Z,7.00
2023-09-10T12:30:06.664Z,6.70
2023-09-10T12:32:38.352Z,6.95
2023-09-10T12:35:05.498Z,7.28
2023-09-10T12:37:32.534Z,6.50
2023-09-10T12:40:05.883Z,7.18
2023-09-10T12:42:34.936Z,7.30
2023-09-10T12:45:03.857Z,7.13
2023-09-10T12:47:30.742Z,6.88
2023-09-10T12:49:59.764Z,7.00
2023-09-10T12:52:29.667Z,7.18
2023-09-10T12:54:56.346Z,6.80
2023-09-10T12:57:22.920Z,6.90
2023-09-10T12:59:58.962Z,7.28
2023-09-10T13:02:27.265Z,7.07
2023-09-10T13:04:54.731Z,6.70
2023-09-10T13:07:21.472Z,6.43
2023-09-10T13:09:53.135Z,6.70
2023-09-10T13:12:26.036Z,6.40
2023-09-10T13:14:52.763Z,6.63
2023-09-10T13:17:19.524Z,6.43
2023-09-10T13:19:48.628Z,5.80
2023-09-10T13:22:15.325Z,6.32
2023-09-10T13:24:42.417Z,6.68
2023-09-10T13:27:09.073Z,7.03
2023-09-10T13:29:35.874Z,7.22
2023-09-10T13:32:02.579Z,6.50
2023-09-10T13:34:32.732Z,6.85
2023-09-10T13:37:04.566Z,6.25
2023-09-10T13:39:33.369Z,5.95
2023-09-10T13:41:59.987Z,6.63
2023-09-10T13:44:26.599Z,6.70
2023-09-10T13:46:53.444Z,6.07
2023-09-10T13:49:20.262Z,7.32
2023-09-10T13:51:49.196Z,6.50
2023-09-10T13:54:15.890Z,6.40
2023-09-10T13:56:44.871Z,5.90
2023-09-10T13:59:18.972Z,6.25
2023-09-10T14:01:47.629Z,6.35
2023-09-10T14:04:20.717Z,6.03
2023-09-10T14:06:52.116Z,6.45
2023-09-10T14:09:21.228Z,6.23
2023-09-10T14:11:47.877Z,6.78
2023-09-10T14:14:16.993Z,6.60
2023-09-10T14:16:43.918Z,6.00
2023-09-10T14:19:10.772Z,5.85
2023-09-10T14:21:39.452Z,6.10
2023-09-10T14:24:06.381Z,6.05
2023-09-10T14:26:37.870Z,7.07
2023-09-10T14:29:07.038Z,6.47
2023-09-10T14:31:36.098Z,6.53
2023-09-10T14:34:05.837Z,6.00
2023-09-10T14:36:32.498Z,6.05
2023-09-10T14:39:03.427Z,6.13
2023-09-10T14:41:32.401Z,7.25
2023-09-10T14:43:59.151Z,6.65
2023-09-10T14:46:25.903Z,6.30
2023-09-10T14:48:52.542Z,6.13
2023-09-10T14:51:21.462Z,6.25
2023-09-10T14:53:52.843Z,6.25
2023-09-10T14:56:19.511Z,7.18
2023-09-10T14:58:46.119Z,6.67
2023-09-10T15:01:15.879Z,6.50
2023-09-10T15:03:42.922Z,7.05
2023-09-10T15:06:12.155Z,6.40
2023-09-10T15:08:38.843Z,7.28
2023-09-10T15:11:05.546Z,6.43
2023-09-10T15:13:32.574Z,6.55
2023-09-10T15:15:59.317Z,6.72
2023-09-10T15:18:26.142Z,6.70
2023-09-10T15:20:52.779Z,6.32
2023-09-10T15:23:21.952Z,6.67
2023-09-10T15:25:49.196Z,7.00
2023-09-10T15:28:18.299Z,7.70
2023-09-10T15:30:44.945Z,6.55
2023-09-10T15:33:13.835Z,6.65
2023-09-10T15:35:43.394Z,7.47
2023-09-10T15:38:12.258Z,6.72
2023-09-10T15:40:43.611Z,7.03
2023-09-10T15:43:10.207Z,6.68
2023-09-10T15:45:42.177Z,7.03
2023-09-10T15:48:08.840Z,6.87
2023-09-10T15:50:35.705Z,6.93
2023-09-10T15:53:02.632Z,6.68
2023-09-10T15:55:31.963Z,7.38
2023-09-10T15:57:58.571Z,6.85
2023-09-10T16:00:30.027Z,6.67
2023-09-10T16:02:59.953Z,6.72
2023-09-10T16:05:27.077Z,7.15
2023-09-10T16:07:53.745Z,6.40
2023-09-10T16:10:21.810Z,6.43
2023-09-10T16:12:50.908Z,6.27
2023-09-10T16:15:22.487Z,6.50
2023-09-10T16:17:52.150Z,6.40
2023-09-10T16:20:18.856Z,6.40
2023-09-10T16:22:45.644Z,6.85
2023-09-10T16:25:12.554Z,6.10
2023-09-10T16:27:44.046Z,6.72
2023-09-10T16:30:14.071Z,5.85
2023-09-10T16:32:41.717Z,6.40
2023-09-10T16:35:11.277Z,6.57
2023-09-10T16:37:39.149Z,6.07
2023-09-10T16:40:06.671Z,6.90
2023-09-10T16:42:35.880Z,6.35
2023-09-10T16:45:02.616Z,6.22
2023-09-10T16:47:29.314Z,6.30
2023-09-10T16:49:58.572Z,6.43
2023-09-10T16:52:25.201Z,5.68
2023-09-10T16:54:51.822Z,6.25
2023-09-10T16:57:18.443Z,6.32
2023-09-10T16:59:48.627Z,6.22
2023-09-10T17:02:15.756Z,6.20
2023-09-10T17:04:44.813Z,5.65
2023-09-10T17:07:11.757Z,6.35
2023-09-10T17:09:40.847Z,5.72
2023-09-10T17:12:09.977Z,6.72
2023-09-10T17:14:36.727Z,5.83
2023-09-10T17:17:03.762Z,5.95
2023-09-10T17:19:31.024Z,5.95
2023-09-10T17:21:57.602Z,5.63
2023-09-10T17:24:26.414Z,5.70
2023-09-10T17:26:55.426Z,5.93
2023-09-10T17:29:24.470Z,5.40
2023-09-10T17:31:51.569Z,5.53
2023-09-10T17:34:18.199Z,5.50
2023-09-10T17:36:47.009Z,5.65
2023-09-10T17:39:13.607Z,5.17
2023-09-10T17:41:41.473Z,5.28
2023-09-10T17:44:10.429Z,5.13
2023-09-10T17:46:37.164Z,5.35
2023-09-10T17:49:04.105Z,4.80
2023-09-10T17:51:30.775Z,5.30
2023-09-10T17:53:57.457Z,4.85
2023-09-10T17:56:24.284Z,5.40
2023-09-10T17:58:53.349Z,5.85
2023-09-10T18:01:20.037Z,5.10
2023-09-10T18:03:46.898Z,5.00
2023-09-10T18:06:16.057Z,4.85
2023-09-10T18:08:42.653Z,5.25
2023-09-10T18:11:09.328Z,5.05
2023-09-10T18:13:41.892Z,5.15
2023-09-10T18:16:09.670Z,4.80
2023-09-10T18:18:38.530Z,4.70
2023-09-10T18:21:09.672Z,5.32
2023-09-10T18:23:37.768Z,4.38
2023-09-10T18:26:06.180Z,4.60
2023-09-10T18:28:32.783Z,4.60
2023-09-10T18:31:04.310Z,4.43
2023-09-10T18:33:33.918Z,4.57
2023-09-10T18:36:03.345Z,4.50
2023-09-10T18:38:30.620Z,4.35
2023-09-10T18:40:57.320Z,4.40
2023-09-10T18:43:23.919Z,4.40
2023-09-10T18:45:55.067Z,4.63
2023-09-10T18:48:24.668Z,4.10
2023-09-10T18:50:51.522Z,4.53
2023-09-10T18:53:21.616Z,4.37
2023-09-10T18:55:48.415Z,4.35
2023-09-10T18:58:14.989Z,4.63
2023-09-10T19:00:46.476Z,4.32
2023-09-10T19:03:13.266Z,4.10
2023-09-10T19:05:43.727Z,4.30
2023-09-10T19:08:13.120Z,4.13
2023-09-10T19:10:39.786Z,4.28
2023-09-10T19:13:06.799Z,4.00
2023-09-10T19:15:41.784Z,4.22
2023-09-10T19:18:08.559Z,4.10
2023-09-10T19:20:35.471Z,3.85
2023-09-10T19:23:02.160Z,4.18
2023-09-10T19:25:33.734Z,4.05
2023-09-10T19:28:01.803Z,4.40
2023-09-10T19:30:29.578Z,4.10
2023-09-10T19:32:56.280Z,4.50
2023-09-10T19:35:23.674Z,4.38
2023-09-10T19:37:53.757Z,4.03
2023-09-10T19:40:25.710Z,4.75
2023-09-10T19:42:52.541Z,4.80
2023-09-10T19:45:19.578Z,4.93
2023-09-10T19:47:48.836Z,5.07
2023-09-10T19:50:18.025Z,5.22
2023-09-10T19:52:44.640Z,4.65
2023-09-10T19:55:11.885Z,4.87
2023-09-10T19:57:43.418Z,6.38
2023-09-10T20:00:10.710Z,6.28
2023-09-10T20:02:42.385Z,6.10
2023-09-10T20:05:10.826Z,6.25
2023-09-10T20:07:42.085Z,6.80
2023-09-10T20:10:09.786Z,6.82
2023-09-10T20:12:38.856Z,6.75
2023-09-10T20:15:10.208Z,6.63
2023-09-10T20:17:36.902Z,7.00
2023-09-10T20:20:06.031Z,6.70
2023-09-10T20:22:32.663Z,6.70
2023-09-10T20:24:59.348Z,6.75
2023-09-10T20:27:29.114Z,6.57
2023-09-10T20:30:00.525Z,7.30
2023-09-10T20:32:29.527Z,6.60
2023-09-10T20:34:56.251Z,6.50
2023-09-10T20:37:25.157Z,7.07
2023-09-10T20:39:57.868Z,6.80
2023-09-10T20:42:28.308Z,5.97
2023-09-10T20:44:57.566Z,5.70
2023-09-10T20:47:27.199Z,5.80
2023-09-10T20:49:58.485Z,5.28
2023-09-10T20:52:29.248Z,5.43
2023-09-10T20:54:58.493Z,5.47
2023-09-10T20:57:29.848Z,6.37
2023-09-10T20:59:59.061Z,5.70
2023-09-10T21:02:26.119Z,6.50
2023-09-10T21:04:52.880Z,6.38
2023-09-10T21:07:19.893Z,6.50
2023-09-10T21:09:47.024Z,6.60
2023-09-10T21:12:13.708Z,7.03
2023-09-10T21:14:45.445Z,6.90
2023-09-10T21:17:19.242Z,6.85
2023-09-10T21:19:49.094Z,6.28
2023-09-10T21:22:15.703Z,6.60
2023-09-10T21:24:44.625Z,6.50
2023-09-10T21:27:11.285Z,6.00
2023-09-10T21:29:40.629Z,6.20
2023-09-10T21:32:09.790Z,6.72
2023-09-10T21:34:36.450Z,6.13
2023-09-10T21:37:03.509Z,6.53
2023-09-10T21:39:35.208Z,6.38
2023-09-10T21:42:04.368Z,6.40
2023-09-10T21:44:33.306Z,6.97
2023-09-10T21:47:00.424Z,6.63
2023-09-10T21:49:27.062Z,6.35
2023-09-10T21:51:57.149Z,6.95
2023-09-10T21:54:27.282Z,5.97
2023-09-10T21:56:54.092Z,6.20
2023-09-10T21:59:23.113Z,5.90
2023-09-10T22:01:51.843Z,6.30
2023-09-10T22:04:21.110Z,6.13
2023-09-10T22:06:47.932Z,6.50
2023-09-10T22:09:14.480Z,6.30
2023-09-10T22:11:41.165Z,7.10
2023-09-10T22:14:12.616Z,6.47
2023-09-10T22:16:42.280Z,6.70
2023-09-10T22:19:10.281Z,6.93
2023-09-10T22:21:36.980Z,6.90
2023-09-10T22:24:05.953Z,7.30
2023-09-10T22:26:34.902Z,6.40
2023-09-10T22:29:01.492Z,6.70
2023-09-10T22:31:28.258Z,7.00
2023-09-10T22:33:54.940Z,6.60
2023-09-10T22:36:35.134Z,7.30
2023-09-10T22:39:08.728Z,6.50
2023-09-10T22:41:35.725Z,6.88
2023-09-10T22:44:04.893Z,7.07
2023-09-10T22:46:31.678Z,6.97
2023-09-10T22:49:00.636Z,6.77
2023-09-10T22:51:29.780Z,6.95
2023-09-10T22:53:58.642Z,7.50
2023-09-10T22:56:26.271Z,7.55
2023-09-10T22:58:53.065Z,6.78
2023-09-10T23:01:21.763Z,6.90
2023-09-10T23:03:52.111Z,7.28
2023-09-10T23:06:21.449Z,7.05
2023-09-10T23:08:50.616Z,6.50
2023-09-10T23:11:19.450Z,7.18
2023-09-10T23:13:48.522Z,6.70
2023-09-10T23:16:15.178Z,6.38
2023-09-10T23:18:44.122Z,6.22
2023-09-10T23:21:15.675Z,5.95
2023-09-10T23:23:44.206Z,5.22
2023-09-10T23:26:11.031Z,6.07
2023-09-10T23:28:42.759Z,6.13
2023-09-10T23:31:09.731Z,6.15
2023-09-10T23:33:39.056Z,5.65
2023-09-10T23:36:08.248Z,6.50
2023-09-10T23:38:39.723Z,6.50
2023-09-10T23:41:09.471Z,6.07
2023-09-10T23:43:38.688Z,6.15
2023-09-10T23:46:06.335Z,6.78
2023-09-10T23:48:35.405Z,6.63
2023-09-10T23:51:06.280Z,6.43
2023-09-10T23:53:33.006Z,6.75
2023-09-10T23:55:59.673Z,7.40
2023-09-10T23:58:26.341Z,6.82
